Terminal Aerodrome Forecast
Issued by NWS Springfield, MO

Home | Current Version | Previous Version | Text Only | Print | Product List | Glossary On
Versions: 1 2 3 4 5 6 7 8 9 10 11 12 13 14
000
FTUS43 KSGF 102100 AAA
TAFSGF
TAF AMD
KSGF 102159Z 1022/1118 12011KT P6SM SCT050 BKN150 OVC250
     FM102330 12005KT P6SM SCT250
     FM111500 15008KT P6SM SCT250=

USA.gov is the U.S. government's official web portal to all federal, state and local government web resources and services.